Time;durP1;ratioP1;P1;durP2;ratioP2;P2;SDS_P1;SDS_P2;PMS_P1;PMS_P2;Temp;Humidity;BMP_temperature;BMP_pressure;BME280_temperature;BME280_humidity;BME280_pressure;Samples;Min_cycle;Max_cycle;Signal;HPM_P1;HPM_P2
2022/11/18 00:01:32;;;;;;;3.37;2.57;;;3.70;91.70;;;;;;5133091;27;20194;-75
2022/11/18 00:04:01;;;;;;;3.33;2.97;;;3.60;92.40;;;;;;5136923;27;20611;-80
2022/11/18 00:06:30;;;;;;;3.37;3.07;;;3.60;93.50;;;;;;5137072;27;20254;-71
2022/11/18 00:09:00;;;;;;;4.23;3.03;;;3.50;93.40;;;;;;5137089;27;20242;-67
2022/11/18 00:14:19;;;;;;;2.73;2.47;;;3.60;92.70;;;;;;5137056;27;20665;-68
2022/11/18 00:16:50;;;;;;;3.53;3.03;;;3.70;92.20;;;;;;5136979;27;20193;-70
2022/11/18 00:19:19;;;;;;;13.73;7.67;;;3.70;89.80;;;;;;5136547;27;20230;-79
2022/11/18 00:21:48;;;;;;;5.73;4.03;;;3.80;90.20;;;;;;5136441;27;20226;-66
2022/11/18 00:24:17;;;;;;;4.10;3.50;;;3.80;87.60;;;;;;5136982;27;20196;-76
2022/11/18 00:26:45;;;;;;;2.90;2.57;;;3.90;88.10;;;;;;5137051;27;20239;-68
2022/11/18 00:29:16;;;;;;;3.10;2.63;;;3.70;86.80;;;;;;5118440;27;20231;-72
2022/11/18 00:31:45;;;;;;;5.60;3.87;;;3.80;87.80;;;;;;5136814;27;20194;-76
2022/11/18 00:34:16;;;;;;;3.30;3.00;;;3.90;87.10;;;;;;5136491;27;20623;-71
2022/11/18 00:36:46;;;;;;;3.43;2.90;;;3.90;86.00;;;;;;5136815;27;20254;-69
2022/11/18 00:39:16;;;;;;;5.13;4.00;;;3.80;85.00;;;;;;5136532;27;20748;-74
2022/11/18 00:44:32;;;;;;;2.77;2.57;;;4.00;86.20;;;;;;5136211;27;20197;-69
2022/11/18 00:47:01;;;;;;;3.20;2.87;;;4.00;85.90;;;;;;5136189;27;20205;-70
2022/11/18 00:49:30;;;;;;;4.87;3.17;;;4.10;85.60;;;;;;5136130;27;20645;-81
2022/11/18 00:51:58;;;;;;;3.27;3.07;;;4.10;84.90;;;;;;5136306;27;20193;-77
2022/11/18 00:54:27;;;;;;;2.93;2.70;;;4.20;85.30;;;;;;5136138;27;20198;-82
2022/11/18 00:56:56;;;;;;;4.57;3.00;;;4.20;83.80;;;;;;5136226;27;20239;-78
2022/11/18 00:59:24;;;;;;;4.33;2.80;;;4.20;84.50;;;;;;5136207;27;20194;-72
2022/11/18 01:01:54;;;;;;;3.23;2.93;;;4.20;84.50;;;;;;5136115;27;20202;-77
2022/11/18 01:04:23;;;;;;;3.20;3.00;;;4.20;84.20;;;;;;5136187;27;20208;-73
2022/11/18 01:06:52;;;;;;;3.93;3.10;;;4.20;84.40;;;;;;5136128;27;20623;-72
2022/11/18 01:09:21;;;;;;;4.77;4.03;;;4.20;84.60;;;;;;5135546;27;20587;-74
2022/11/18 01:14:35;;;;;;;6.47;3.70;;;4.30;85.50;;;;;;5135466;27;20626;-73
2022/11/18 01:17:06;;;;;;;5.17;3.40;;;4.30;87.30;;;;;;5135585;27;20258;-79
2022/11/18 01:19:35;;;;;;;5.93;3.30;;;4.10;90.50;;;;;;5135447;27;20649;-79
2022/11/18 01:22:03;;;;;;;3.30;2.93;;;4.00;93.20;;;;;;5135508;27;20610;-83
2022/11/18 01:24:33;;;;;;;3.07;2.77;;;3.80;94.40;;;;;;5135610;27;20194;-69
2022/11/18 01:27:02;;;;;;;5.03;3.10;;;3.90;95.10;;;;;;5135470;27;20228;-72
2022/11/18 01:29:31;;;;;;;4.53;3.10;;;3.90;95.20;;;;;;5135534;27;20236;-79
2022/11/18 01:31:59;;;;;;;3.30;3.00;;;3.90;94.90;;;;;;5135306;27;20710;-81
2022/11/18 01:34:49;;;;;;;8.37;5.57;;;4.00;95.20;;;;;;5135348;27;20568;-72
2022/11/18 01:37:18;;;;;;;3.60;3.30;;;4.10;94.80;;;;;;5135558;27;20670;-76
2022/11/18 01:39:46;;;;;;;4.10;3.40;;;4.20;94.80;;;;;;5135616;27;20270;-76
2022/11/18 01:42:16;;;;;;;3.57;3.17;;;4.10;94.60;;;;;;5135527;27;20601;-66
2022/11/18 01:45:08;;;;;;;4.20;3.27;;;4.10;94.50;;;;;;5135363;27;20198;-76
2022/11/18 01:47:40;;;;;;;3.87;3.33;;;4.20;94.40;;;;;;5135107;27;20570;-75
2022/11/18 01:50:13;;;;;;;4.00;3.47;;;4.20;93.90;;;;;;5134652;27;20238;-75
2022/11/18 01:52:41;;;;;;;4.50;3.57;;;4.20;93.70;;;;;;5135204;27;20533;-76
2022/11/18 01:55:18;;;;;;;4.47;3.57;;;4.30;92.80;;;;;;5135280;27;20267;-78
2022/11/18 01:57:49;;;;;;;3.60;3.30;;;4.30;92.60;;;;;;5135138;27;20198;-76
2022/11/18 02:00:18;;;;;;;3.90;3.10;;;4.40;92.20;;;;;;5134868;27;20216;-67
2022/11/18 02:02:47;;;;;;;2.93;2.73;;;4.40;91.80;;;;;;5134893;27;20194;-71
2022/11/18 02:05:18;;;;;;;4.20;3.13;;;4.40;91.50;;;;;;5134711;27;20240;-71
2022/11/18 02:07:47;;;;;;;4.60;3.07;;;4.50;91.40;;;;;;5134811;27;20194;-67
2022/11/18 02:10:20;;;;;;;3.93;3.03;;;4.50;91.50;;;;;;5134809;27;20212;-72
2022/11/18 02:12:49;;;;;;;3.50;3.20;;;4.50;90.70;;;;;;5134648;27;20297;-67
2022/11/18 02:15:22;;;;;;;3.87;3.43;;;4.40;90.00;;;;;;5134545;27;20200;-66
2022/11/18 02:18:00;;;;;;;3.43;3.13;;;4.50;89.70;;;;;;5134456;27;20197;-68
2022/11/18 02:20:35;;;;;;;3.40;3.10;;;4.50;88.50;;;;;;5134158;27;20237;-69
2022/11/18 02:23:46;;;;;;;3.37;3.03;;;4.50;87.80;;;;;;5134466;27;20208;-80
2022/11/18 02:26:49;;;;;;;3.43;2.80;;;4.40;92.00;;;;;;5133876;27;20199;-74
2022/11/18 02:29:24;;;;;;;5.90;2.83;;;4.10;95.40;;;;;;5134309;27;20221;-67
2022/11/18 02:31:59;;;;;;;3.10;2.90;;;3.90;96.20;;;;;;5134235;27;20205;-70
2022/11/18 02:34:40;;;;;;;4.33;3.30;;;3.80;96.60;;;;;;5134144;27;20200;-72
2022/11/18 02:37:16;;;;;;;2.70;2.50;;;3.90;96.60;;;;;;5134134;27;20200;-81
2022/11/18 02:39:50;;;;;;;2.93;2.73;;;3.90;96.90;;;;;;5134352;27;20211;-66
2022/11/18 02:42:20;;;;;;;3.00;2.80;;;3.80;96.70;;;;;;5134061;27;20575;-66
2022/11/18 02:44:55;;;;;;;3.13;2.93;;;3.70;97.30;;;;;;5134019;27;20196;-67
2022/11/18 02:47:27;;;;;;;4.53;3.23;;;3.70;98.00;;;;;;5134119;27;20200;-71
2022/11/18 02:50:01;;;;;;;3.67;3.37;;;3.60;98.50;;;;;;5133735;27;20236;-66
2022/11/18 02:52:32;;;;;;;3.93;3.40;;;3.70;99.10;;;;;;5133824;27;20257;-71
2022/11/18 02:55:02;;;;;;;3.70;3.43;;;3.70;99.30;;;;;;5133795;27;20206;-67
2022/11/18 02:57:33;;;;;;;4.67;4.17;;;3.70;99.50;;;;;;5133909;27;20202;-68
2022/11/18 03:00:04;;;;;;;3.47;3.17;;;3.80;99.60;;;;;;5133956;27;20201;-67
2022/11/18 03:02:42;;;;;;;3.63;3.10;;;4.00;99.60;;;;;;5133636;27;20200;-69
2022/11/18 03:05:17;;;;;;;3.63;3.30;;;4.00;99.40;;;;;;5133479;27;20244;-80
2022/11/18 03:07:51;;;;;;;3.63;3.33;;;3.90;99.30;;;;;;5133704;27;20187;-71
2022/11/18 03:10:21;;;;;;;4.70;3.60;;;4.00;99.20;;;;;;5133840;27;20208;-66
2022/11/18 03:12:58;;;;;;;4.77;4.30;;;4.10;98.60;;;;;;5133742;27;20216;-70
2022/11/18 03:15:38;;;;;;;6.67;4.93;;;4.10;97.90;;;;;;5133605;27;20199;-68
2022/11/18 03:18:16;;;;;;;6.07;4.03;;;4.10;97.20;;;;;;5133554;27;20541;-66
2022/11/18 03:20:50;;;;;;;4.67;4.30;;;4.10;96.30;;;;;;5133112;27;20617;-78
2022/11/18 03:23:27;;;;;;;4.00;3.63;;;3.90;96.40;;;;;;5133699;27;20192;-73
2022/11/18 03:25:59;;;;;;;3.47;3.17;;;3.90;94.80;;;;;;5133557;28;20296;-74
2022/11/18 03:28:34;;;;;;;5.43;3.37;;;4.00;93.70;;;;;;5133480;28;20194;-68
2022/11/18 03:31:12;;;;;;;3.47;3.23;;;4.20;92.20;;;;;;5133202;28;20709;-65
2022/11/18 03:33:45;;;;;;;6.33;3.63;;;4.30;91.50;;;;;;5114991;28;20630;-73
2022/11/18 03:36:16;;;;;;;3.17;2.97;;;4.40;91.20;;;;;;5134263;27;20209;-67
2022/11/18 03:38:50;;;;;;;4.40;3.83;;;4.40;89.70;;;;;;5137650;27;20557;-64
2022/11/18 03:41:20;;;;;;;4.67;3.20;;;4.40;89.90;;;;;;5137534;27;20299;-72
2022/11/18 03:44:00;;;;;;;3.47;3.10;;;4.40;88.10;;;;;;5137436;27;20672;-72
2022/11/18 03:46:36;;;;;;;3.37;3.07;;;4.40;87.00;;;;;;5137270;27;20194;-71
2022/11/18 03:49:07;;;;;;;3.37;3.17;;;4.40;87.20;;;;;;5133829;27;20197;-68
2022/11/18 03:51:41;;;;;;;4.57;3.23;;;4.40;85.70;;;;;;5133136;27;20202;-81
2022/11/18 03:54:14;;;;;;;4.10;2.90;;;4.40;86.20;;;;;;5137162;27;20223;-65
2022/11/18 03:56:47;;;;;;;2.90;2.63;;;4.50;85.30;;;;;;5137125;27;20271;-69
2022/11/18 03:59:18;;;;;;;3.73;3.40;;;4.50;84.70;;;;;;5137307;27;20227;-66
2022/11/18 04:01:53;;;;;;;3.37;3.00;;;4.50;84.70;;;;;;5137259;27;20186;-76
2022/11/18 04:04:22;;;;;;;5.20;3.13;;;4.50;84.60;;;;;;5136881;27;20666;-67
2022/11/18 04:06:57;;;;;;;3.47;2.97;;;4.60;83.00;;;;;;5136998;27;20193;-70
2022/11/18 04:09:30;;;;;;;3.07;2.80;;;4.50;81.00;;;;;;5136993;27;20204;-68
2022/11/18 04:12:02;;;;;;;3.00;2.73;;;4.50;80.60;;;;;;5136882;27;20702;-70
2022/11/18 04:14:33;;;;;;;3.23;3.00;;;4.40;80.00;;;;;;5136949;27;20199;-77
2022/11/18 04:17:08;;;;;;;3.20;2.90;;;4.40;79.90;;;;;;5136875;27;20210;-65
2022/11/18 04:19:37;;;;;;;2.87;2.67;;;4.30;79.40;;;;;;5129203;27;20240;-65
2022/11/18 04:22:06;;;;;;;3.37;2.90;;;4.30;80.40;;;;;;5129410;27;20201;-80
2022/11/18 04:24:35;;;;;;;3.20;2.90;;;4.40;81.30;;;;;;5138172;27;20206;-69
2022/11/18 04:27:04;;;;;;;4.40;3.13;;;4.50;81.70;;;;;;5136921;27;20272;-81
2022/11/18 04:29:33;;;;;;;4.30;3.37;;;4.50;79.30;;;;;;5136577;27;20199;-67
2022/11/18 04:32:04;;;;;;;3.60;3.30;;;4.50;79.10;;;;;;5137867;27;20201;-69
2022/11/18 04:34:33;;;;;;;3.03;2.80;;;4.40;77.50;;;;;;5136958;27;20262;-66
2022/11/18 04:37:02;;;;;;;3.27;2.97;;;4.40;79.30;;;;;;5137344;27;20581;-68
2022/11/18 04:39:30;;;;;;;2.63;2.50;;;4.40;79.10;;;;;;5137277;27;20202;-65
2022/11/18 04:41:59;;;;;;;4.93;2.87;;;4.50;79.10;;;;;;5136910;27;20266;-65
2022/11/18 04:44:29;;;;;;;3.37;3.17;;;4.50;79.00;;;;;;5136288;27;20203;-79
2022/11/18 04:46:59;;;;;;;3.50;3.20;;;4.50;78.00;;;;;;5136184;27;20537;-83
2022/11/18 04:49:30;;;;;;;3.53;3.20;;;4.50;78.20;;;;;;5128631;27;20285;-65
2022/11/18 04:51:59;;;;;;;3.97;2.70;;;4.50;78.00;;;;;;5135402;27;20222;-68
2022/11/18 04:54:28;;;;;;;3.43;3.00;;;4.40;77.40;;;;;;5136171;27;20585;-85
2022/11/18 04:56:56;;;;;;;3.10;2.80;;;4.40;78.60;;;;;;5136127;27;20228;-66
2022/11/18 04:59:27;;;;;;;3.00;2.70;;;4.40;78.30;;;;;;5136204;27;20210;-67
2022/11/18 05:01:57;;;;;;;2.53;2.33;;;4.40;78.80;;;;;;5135938;27;20247;-65
2022/11/18 05:04:28;;;;;;;3.33;3.03;;;4.40;77.90;;;;;;5135707;27;20184;-65
2022/11/18 05:06:59;;;;;;;3.07;2.77;;;4.40;78.70;;;;;;5135978;27;20198;-70
2022/11/18 05:09:28;;;;;;;3.00;2.77;;;4.40;79.40;;;;;;5135719;27;20209;-65
2022/11/18 05:14:45;;;;;;;3.30;3.00;;;4.60;79.00;;;;;;5135815;27;20272;-72
2022/11/18 05:17:18;;;;;;;5.23;3.43;;;4.60;79.50;;;;;;5135763;27;20619;-66
2022/11/18 05:19:46;;;;;;;5.77;2.83;;;4.50;78.30;;;;;;5126648;27;20633;-66
2022/11/18 05:22:16;;;;;;;4.63;3.00;;;4.60;79.10;;;;;;5135744;27;20193;-65
2022/11/18 05:24:45;;;;;;;2.77;2.57;;;4.60;79.10;;;;;;5135802;27;20607;-66
2022/11/18 05:27:14;;;;;;;3.20;2.90;;;4.50;78.10;;;;;;5135574;27;20286;-67
2022/11/18 05:29:43;;;;;;;3.27;3.00;;;4.40;77.30;;;;;;5135536;27;20284;-65
2022/11/18 05:32:11;;;;;;;3.43;3.00;;;4.40;76.60;;;;;;5132755;27;20229;-65
2022/11/18 05:34:40;;;;;;;2.83;2.53;;;4.40;77.30;;;;;;5124112;27;20250;-65
2022/11/18 05:37:08;;;;;;;3.50;3.20;;;4.40;77.80;;;;;;5114632;28;20209;-65
2022/11/18 05:39:38;;;;;;;3.30;3.10;;;4.40;76.10;;;;;;5114912;28;20289;-66
2022/11/18 05:44:53;;;;;;;2.97;2.77;;;4.40;71.90;;;;;;5114563;28;20750;-71
2022/11/18 05:47:25;;;;;;;3.23;2.93;;;4.40;68.80;;;;;;5114414;28;20225;-68
2022/11/18 05:49:54;;;;;;;3.27;2.97;;;4.30;65.30;;;;;;5114063;28;20294;-68
2022/11/18 05:52:22;;;;;;;3.20;2.70;;;4.30;64.30;;;;;;5114397;28;20232;-66
2022/11/18 05:54:52;;;;;;;2.77;2.57;;;4.30;63.00;;;;;;5114320;28;20204;-68
2022/11/18 05:57:21;;;;;;;3.30;3.03;;;4.30;62.60;;;;;;5114293;28;20202;-66
2022/11/18 05:59:49;;;;;;;5.17;4.77;;;4.20;61.50;;;;;;5095069;28;20590;-70
2022/11/18 06:02:23;;;;;;;5.27;4.80;;;4.20;61.30;;;;;;5114495;28;20199;-70
2022/11/18 06:04:57;;;;;;;7.20;6.50;;;4.30;61.10;;;;;;5125147;27;20212;-72
2022/11/18 06:07:28;;;;;;;3.53;3.33;;;4.30;61.60;;;;;;5114104;28;20194;-68
2022/11/18 06:10:00;;;;;;;3.07;2.77;;;4.30;61.20;;;;;;5114037;28;20634;-68
2022/11/18 06:12:37;;;;;;;3.90;3.50;;;4.30;59.90;;;;;;5113847;28;20230;-66
2022/11/18 06:15:09;;;;;;;3.90;3.60;;;4.30;59.50;;;;;;5114385;27;20190;-71
2022/11/18 06:17:44;;;;;;;3.53;3.33;;;4.30;59.70;;;;;;5134568;27;20205;-68
2022/11/18 06:20:13;;;;;;;5.23;4.70;;;4.30;60.00;;;;;;5133928;27;20769;-64
2022/11/18 06:22:42;;;;;;;4.27;3.87;;;4.30;60.30;;;;;;5134327;27;20205;-65
2022/11/18 06:25:15;;;;;;;2.90;2.70;;;4.30;59.90;;;;;;5134122;27;20202;-65
2022/11/18 06:27:45;;;;;;;2.57;2.37;;;4.30;60.20;;;;;;5134238;27;20200;-70
2022/11/18 06:30:14;;;;;;;4.87;4.37;;;4.30;61.00;;;;;;5134356;27;20608;-67
2022/11/18 06:32:43;;;;;;;10.63;9.03;;;4.30;61.60;;;;;;5134248;27;20249;-67
2022/11/18 06:35:12;;;;;;;7.47;5.57;;;4.30;61.90;;;;;;5133862;27;20247;-66
2022/11/18 06:37:40;;;;;;;5.17;4.67;;;4.30;61.80;;;;;;5134089;27;20197;-68
2022/11/18 06:40:10;;;;;;;3.87;3.57;;;4.30;61.80;;;;;;5134063;27;20188;-64
2022/11/18 06:45:26;;;;;;;4.50;3.17;;;4.30;62.60;;;;;;5134066;27;20198;-66
2022/11/18 06:47:56;;;;;;;3.50;3.20;;;4.20;64.40;;;;;;5133909;27;20219;-65
2022/11/18 06:50:24;;;;;;;3.77;2.87;;;4.20;67.30;;;;;;5133562;27;20194;-65
2022/11/18 06:52:53;;;;;;;3.73;3.43;;;4.10;69.30;;;;;;5133810;27;20307;-69
2022/11/18 06:55:22;;;;;;;6.47;3.57;;;4.00;71.10;;;;;;5133895;27;20203;-69
2022/11/18 06:57:51;;;;;;;5.70;3.60;;;3.90;72.00;;;;;;5130451;27;20685;-65
2022/11/18 07:00:20;;;;;;;5.73;4.43;;;3.80;75.10;;;;;;5127266;27;20189;-67
2022/11/18 07:02:49;;;;;;;4.73;3.97;;;3.80;76.40;;;;;;5133705;27;20283;-65
2022/11/18 07:05:17;;;;;;;4.37;3.57;;;3.90;77.10;;;;;;5133790;27;20549;-66
2022/11/18 07:07:46;;;;;;;5.70;4.57;;;3.90;76.00;;;;;;5115996;27;20201;-65
2022/11/18 07:10:14;;;;;;;8.67;6.20;;;4.00;75.70;;;;;;5133645;27;20244;-65
2022/11/18 07:12:43;;;;;;;7.43;6.13;;;4.00;74.50;;;;;;5133235;27;20234;-70
2022/11/18 07:15:13;;;;;;;6.20;5.60;;;4.00;74.30;;;;;;5131795;27;20282;-66
2022/11/18 07:17:41;;;;;;;5.67;4.90;;;4.00;74.40;;;;;;5130107;27;20292;-65
2022/11/18 07:20:11;;;;;;;6.23;4.47;;;4.10;74.30;;;;;;5133823;27;20227;-66
2022/11/18 07:22:41;;;;;;;6.67;5.07;;;4.00;74.60;;;;;;5133326;27;20194;-71
2022/11/18 07:25:10;;;;;;;8.23;6.43;;;4.10;74.40;;;;;;5133563;27;20198;-66
2022/11/18 07:27:38;;;;;;;3.90;3.50;;;3.90;74.30;;;;;;5133995;28;20205;-65
2022/11/18 07:30:08;;;;;;;3.70;3.33;;;3.80;73.80;;;;;;5133364;28;20276;-73
2022/11/18 07:32:38;;;;;;;5.13;4.67;;;3.90;72.00;;;;;;5132937;28;20223;-66
2022/11/18 07:35:07;;;;;;;3.70;3.37;;;3.90;72.60;;;;;;5132889;28;20208;-68
2022/11/18 07:37:35;;;;;;;3.40;3.13;;;3.90;70.70;;;;;;5133499;28;20202;-79
2022/11/18 07:40:05;;;;;;;4.80;3.53;;;3.90;69.20;;;;;;5115218;28;20474;-66
2022/11/18 07:42:41;;;;;;;3.73;3.37;;;4.00;69.30;;;;;;5128961;28;20205;-67
2022/11/18 07:45:23;;;;;;;5.27;3.57;;;4.20;67.90;;;;;;5094499;28;20609;-66
2022/11/18 07:47:53;;;;;;;4.70;4.00;;;4.20;67.40;;;;;;5113127;28;20188;-70
2022/11/18 07:50:22;;;;;;;4.93;3.90;;;4.20;67.40;;;;;;5112970;28;20287;-76
2022/11/18 07:52:50;;;;;;;3.57;3.10;;;4.30;67.60;;;;;;5115426;28;20238;-74
2022/11/18 07:55:19;;;;;;;3.60;3.30;;;4.30;66.00;;;;;;5133576;28;20203;-65
2022/11/18 07:57:47;;;;;;;4.23;3.77;;;4.20;65.00;;;;;;5133543;28;20197;-66
2022/11/18 08:00:17;;;;;;;5.87;3.67;;;4.10;65.60;;;;;;5130075;28;20203;-67
2022/11/18 08:02:45;;;;;;;3.37;2.90;;;4.10;69.50;;;;;;5113117;28;20294;-68
2022/11/18 08:05:15;;;;;;;2.77;2.50;;;3.90;74.10;;;;;;5132399;28;20209;-74
2022/11/18 08:07:45;;;;;;;3.33;2.20;;;3.70;78.60;;;;;;5133463;28;20204;-65
2022/11/18 08:10:14;;;;;;;2.93;2.67;;;3.50;84.80;;;;;;5133429;28;20198;-67
2022/11/18 08:12:42;;;;;;;3.07;2.83;;;3.30;90.90;;;;;;5133405;28;20219;-69
2022/11/18 08:15:11;;;;;;;4.40;3.83;;;3.20;95.20;;;;;;5133316;28;20189;-77
2022/11/18 08:17:39;;;;;;;17.63;9.87;;;3.20;96.50;;;;;;5133519;28;20204;-75
2022/11/18 08:20:09;;;;;;;61.50;28.37;;;3.20;97.00;;;;;;5132345;28;20227;-65
2022/11/18 08:22:39;;;;;;;136.40;44.63;;;3.20;97.00;;;;;;5132893;27;20614;-75
2022/11/18 08:25:08;;;;;;;36.53;16.43;;;3.20;97.20;;;;;;5136477;27;20209;-77
2022/11/18 08:27:37;;;;;;;14.83;9.17;;;3.30;97.60;;;;;;5137032;27;20388;-78
2022/11/18 08:30:06;;;;;;;179.63;65.97;;;3.40;97.80;;;;;;5136799;27;20224;-65
2022/11/18 08:32:35;;;;;;;101.10;43.73;;;3.50;97.10;;;;;;5136877;27;20235;-66
2022/11/18 08:35:04;;;;;;;29.37;18.03;;;3.50;96.70;;;;;;5136577;27;20203;-67
2022/11/18 08:37:39;;;;;;;27.43;16.33;;;3.60;95.50;;;;;;5136585;27;20225;-70
2022/11/18 08:40:09;;;;;;;21.53;14.17;;;3.70;95.80;;;;;;5135898;27;20192;-71
2022/11/18 08:42:37;;;;;;;11.33;7.23;;;3.70;95.10;;;;;;5135872;27;20201;-65
2022/11/18 08:45:08;;;;;;;7.27;6.30;;;3.70;94.70;;;;;;5136765;27;20251;-65
2022/11/18 08:47:37;;;;;;;9.97;6.77;;;3.80;94.90;;;;;;5136732;27;20262;-71
2022/11/18 08:50:08;;;;;;;14.73;7.67;;;3.80;95.00;;;;;;5136326;27;20198;-66
2022/11/18 08:52:36;;;;;;;48.00;22.23;;;3.60;96.10;;;;;;5136271;27;20225;-68
2022/11/18 08:55:07;;;;;;;20.07;11.97;;;3.20;99.10;;;;;;5136508;27;20313;-79
2022/11/18 08:57:35;;;;;;;10.43;9.47;;;2.70;99.90;;;;;;5136127;27;20192;-72
2022/11/18 09:00:04;;;;;;;13.33;9.47;;;2.40;99.90;;;;;;5136417;27;20326;-67
2022/11/18 09:02:33;;;;;;;21.80;16.87;;;2.20;99.90;;;;;;5136107;27;20199;-78
2022/11/18 09:05:01;;;;;;;25.23;18.27;;;2.10;99.90;;;;;;5136398;27;20200;-81
2022/11/18 09:07:30;;;;;;;22.13;15.83;;;2.20;99.90;;;;;;5136404;27;20199;-66
2022/11/18 09:09:58;;;;;;;10.77;8.07;;;2.50;99.90;;;;;;5136073;27;20288;-66
2022/11/18 09:12:28;;;;;;;34.97;26.63;;;2.60;99.90;;;;;;5135518;27;20232;-72
2022/11/18 09:14:57;;;;;;;12.63;10.20;;;2.80;99.90;;;;;;5136338;27;20197;-71
2022/11/18 09:17:42;;;;;;;52.83;21.80;;;2.90;99.90;;;;;;5135997;27;20196;-66
2022/11/18 09:20:11;;;;;;;39.70;17.47;;;3.00;99.90;;;;;;5135837;27;20231;-70
2022/11/18 09:22:39;;;;;;;35.23;15.37;;;3.00;99.90;;;;;;5135779;27;20195;-68
2022/11/18 09:25:09;;;;;;;38.83;17.37;;;3.10;99.90;;;;;;5135975;27;20201;-67
2022/11/18 09:27:39;;;;;;;22.30;11.90;;;3.20;99.90;;;;;;5135357;27;20191;-82
2022/11/18 09:30:09;;;;;;;44.97;19.83;;;3.30;99.90;;;;;;5135638;27;20287;-68
2022/11/18 09:32:38;;;;;;;25.07;11.63;;;3.40;99.90;;;;;;5135609;27;20629;-66
2022/11/18 09:35:06;;;;;;;26.40;13.73;;;3.40;99.90;;;;;;5135691;27;20193;-65
2022/11/18 09:37:35;;;;;;;16.90;9.47;;;3.40;99.90;;;;;;5134094;27;20679;-71
2022/11/18 09:40:04;;;;;;;79.90;28.17;;;3.20;99.90;;;;;;5135735;27;20199;-67
2022/11/18 09:42:46;;;;;;;30.50;14.27;;;3.10;99.90;;;;;;5114289;28;20243;-67
2022/11/18 09:45:23;;;;;;;14.93;9.60;;;3.20;99.90;;;;;;5085263;27;20204;-70
2022/11/18 09:47:57;;;;;;;7.67;6.77;;;3.30;99.90;;;;;;5135874;27;20537;-68
2022/11/18 09:50:26;;;;;;;8.87;5.90;;;3.40;99.90;;;;;;5135452;27;20632;-73
2022/11/18 09:53:20;;;;;;;6.40;5.30;;;3.40;99.90;;;;;;5135134;27;20209;-73
2022/11/18 09:55:50;;;;;;;6.40;4.60;;;3.40;99.90;;;;;;5134923;27;20205;-66
2022/11/18 09:58:28;;;;;;;10.57;7.43;;;3.60;99.90;;;;;;5135436;27;20613;-68
2022/11/18 10:00:57;;;;;;;10.27;7.20;;;3.70;99.90;;;;;;5135179;27;20203;-67
2022/11/18 10:03:28;;;;;;;31.53;17.10;;;3.90;99.90;;;;;;5135027;27;20720;-68
2022/11/18 10:06:02;;;;;;;32.27;15.70;;;3.90;99.90;;;;;;5135493;27;20537;-67
2022/11/18 10:08:36;;;;;;;36.00;19.53;;;3.80;99.90;;;;;;5134655;27;20283;-66
2022/11/18 10:11:12;;;;;;;18.17;12.90;;;3.60;99.90;;;;;;5134489;27;20588;-67
2022/11/18 10:13:54;;;;;;;13.97;9.03;;;3.50;99.90;;;;;;5114306;28;20567;-68
2022/11/18 10:16:40;;;;;;;15.83;7.93;;;3.30;99.90;;;;;;5114797;28;20205;-66
2022/11/18 10:19:22;;;;;;;12.73;10.97;;;3.40;99.90;;;;;;5091089;28;20209;-67
2022/11/18 10:21:57;;;;;;;9.20;6.70;;;3.60;99.90;;;;;;5111277;28;20725;-68
2022/11/18 10:24:30;;;;;;;18.00;9.97;;;3.60;99.90;;;;;;5113883;28;20227;-69
2022/11/18 10:27:01;;;;;;;53.63;23.17;;;3.80;99.90;;;;;;5113780;28;20221;-69
2022/11/18 10:29:31;;;;;;;37.80;15.90;;;4.00;99.90;;;;;;5113524;28;20212;-71
2022/11/18 10:32:05;;;;;;;12.77;8.40;;;3.90;99.90;;;;;;5113451;28;20191;-69
2022/11/18 10:34:35;;;;;;;14.10;9.40;;;4.00;99.70;;;;;;5113633;28;20218;-70
2022/11/18 10:37:07;;;;;;;8.33;6.83;;;4.10;98.20;;;;;;5119722;27;20243;-68
2022/11/18 10:39:50;;;;;;;12.93;9.13;;;4.10;97.90;;;;;;5133776;27;20206;-69
2022/11/18 10:42:27;;;;;;;42.70;28.97;;;4.10;97.50;;;;;;5133744;27;20187;-69
2022/11/18 10:45:16;;;;;;;28.27;19.77;;;4.00;98.40;;;;;;5133873;27;20747;-70
2022/11/18 10:47:58;;;;;;;12.63;8.87;;;4.40;98.20;;;;;;5133645;27;20275;-69
2022/11/18 10:50:30;;;;;;;14.17;6.77;;;4.70;94.60;;;;;;5133782;27;20247;-70
2022/11/18 10:52:59;;;;;;;10.63;7.20;;;4.50;92.30;;;;;;5133440;27;20616;-71
2022/11/18 10:55:28;;;;;;;8.80;6.07;;;4.40;95.50;;;;;;5133532;27;20200;-68
2022/11/18 10:58:04;;;;;;;26.90;12.30;;;4.20;97.90;;;;;;5133742;27;20212;-68
2022/11/18 11:00:49;;;;;;;19.00;10.03;;;4.20;97.70;;;;;;5133650;27;20226;-67
2022/11/18 11:03:35;;;;;;;14.67;7.80;;;4.50;97.70;;;;;;5133419;27;20199;-68
2022/11/18 11:06:36;;;;;;;13.00;7.70;;;4.30;96.40;;;;;;5133778;27;20192;-68
2022/11/18 11:09:08;;;;;;;6.53;4.73;;;4.30;96.80;;;;;;5125833;27;20662;-67
2022/11/18 11:11:42;;;;;;;5.10;4.17;;;4.10;95.50;;;;;;5134196;27;20223;-70
2022/11/18 11:14:23;;;;;;;4.40;4.00;;;3.80;96.70;;;;;;5133513;27;20218;-69
2022/11/18 11:17:09;;;;;;;12.73;7.57;;;3.90;98.20;;;;;;5132487;27;20193;-68
2022/11/18 11:19:44;;;;;;;6.23;5.13;;;3.90;98.30;;;;;;5115786;27;20280;-68
2022/11/18 11:22:13;;;;;;;13.30;8.80;;;3.80;99.00;;;;;;5133559;27;20348;-70
2022/11/18 11:24:41;;;;;;;8.83;6.70;;;3.80;99.70;;;;;;5130892;27;20240;-69
2022/11/18 11:27:42;;;;;;;14.77;9.37;;;3.80;99.50;;;;;;5127136;27;20287;-68
2022/11/18 11:30:37;;;;;;;9.07;5.93;;;3.60;99.80;;;;;;5113532;28;20197;-69
2022/11/18 11:33:34;;;;;;;6.73;6.03;;;3.30;99.90;;;;;;5112776;28;20621;-68
2022/11/18 11:36:23;;;;;;;8.17;6.17;;;3.30;99.90;;;;;;5066400;28;20210;-68
2022/11/18 11:39:02;;;;;;;9.27;6.73;;;3.50;99.90;;;;;;5070792;28;20209;-69
2022/11/18 11:41:42;;;;;;;6.33;5.23;;;3.60;99.90;;;;;;5064921;28;20212;-73
2022/11/18 11:44:30;;;;;;;9.17;5.40;;;3.50;99.90;;;;;;5070537;28;20199;-75
2022/11/18 11:50:05;;;;;;;11.83;5.53;;;3.70;99.90;;;;;;5065904;28;20264;-71
2022/11/18 11:52:44;;;;;;;5.93;4.83;;;3.90;99.80;;;;;;5053771;28;20199;-70
2022/11/18 11:55:20;;;;;;;5.77;5.10;;;3.90;99.50;;;;;;5050484;28;20242;-69
2022/11/18 11:58:04;;;;;;;8.57;6.00;;;4.10;99.00;;;;;;5052084;28;20691;-67
2022/11/18 12:00:37;;;;;;;8.30;6.33;;;4.30;99.00;;;;;;5058926;28;20235;-67
2022/11/18 12:03:18;;;;;;;7.57;5.97;;;4.60;98.60;;;;;;5060889;28;20911;-68
2022/11/18 12:05:47;;;;;;;8.13;6.47;;;4.70;97.90;;;;;;5080844;28;20601;-69
2022/11/18 12:08:21;;;;;;;6.90;6.13;;;4.60;97.30;;;;;;5093852;28;20669;-70
2022/11/18 12:10:56;;;;;;;8.57;6.07;;;4.50;97.30;;;;;;5094024;28;20287;-68
2022/11/18 12:13:35;;;;;;;10.73;8.70;;;4.30;97.30;;;;;;5137781;27;20203;-69
2022/11/18 12:16:18;;;;;;;6.83;5.10;;;4.10;97.90;;;;;;5157517;27;20196;-68
2022/11/18 12:18:51;;;;;;;9.07;6.03;;;3.40;99.90;;;;;;5157356;27;20280;-68
2022/11/18 12:21:57;;;;;;;10.53;7.80;;;2.70;99.90;;;;;;5130007;27;20207;-70
2022/11/18 12:24:31;;;;;;;6.80;5.43;;;2.30;99.90;;;;;;5097911;28;20563;-70
2022/11/18 12:27:01;;;;;;;13.57;9.03;;;2.30;99.90;;;;;;5104814;28;20675;-67
2022/11/18 12:29:38;;;;;;;14.83;10.20;;;2.20;99.90;;;;;;5127613;27;20225;-69
2022/11/18 12:32:40;;;;;;;6.63;5.53;;;2.40;99.90;;;;;;5136338;27;20249;-68
2022/11/18 12:35:27;;;;;;;9.30;6.33;;;2.40;99.90;;;;;;5136532;27;20286;-68
2022/11/18 12:38:03;;;;;;;59.13;35.77;;;2.30;99.90;;;;;;5104451;28;20284;-69
2022/11/18 12:40:38;;;;;;;17.67;11.67;;;2.50;99.90;;;;;;5095375;28;20197;-69
2022/11/18 12:46:53;;;;;;;21.60;15.23;;;2.70;99.90;;;;;;5016607;28;20216;-69
2022/11/18 12:50:03;;;;;;;15.97;13.23;;;2.80;99.90;;;;;;5027392;28;20290;-69
2022/11/18 12:52:52;;;;;;;20.50;14.93;;;2.80;99.90;;;;;;4949674;29;20207;-69
2022/11/18 12:55:38;;;;;;;16.90;12.33;;;2.90;99.90;;;;;;4968256;28;20587;-79
2022/11/18 12:58:23;;;;;;;14.60;10.43;;;2.80;99.90;;;;;;4973187;28;20621;-70
2022/11/18 13:01:05;;;;;;;20.30;14.60;;;2.90;99.90;;;;;;4974896;28;20211;-68
2022/11/18 13:03:33;;;;;;;19.33;13.70;;;3.10;99.90;;;;;;4991661;28;20251;-71
2022/11/18 13:06:07;;;;;;;15.47;9.50;;;3.50;99.90;;;;;;4993412;28;20216;-68
2022/11/18 13:08:37;;;;;;;23.67;12.70;;;3.90;99.90;;;;;;4992597;28;20676;-72
2022/11/18 13:19:57;;;;;;;6.20;5.37;;;3.60;98.40;;;;;;4999423;28;20268;-70
2022/11/18 13:25:25;;;;;;;13.70;8.70;;;2.70;99.90;;;;;;4996072;28;20224;-70
2022/11/18 13:28:03;;;;;;;10.63;8.20;;;2.70;99.90;;;;;;5012537;28;20738;-69
2022/11/18 13:30:33;;;;;;;4.77;4.27;;;2.30;99.90;;;;;;5052018;28;20198;-72
2022/11/18 13:33:02;;;;;;;11.37;8.80;;;2.00;99.90;;;;;;5051899;28;20199;-71
2022/11/18 13:35:30;;;;;;;14.47;9.60;;;1.80;99.90;;;;;;5052043;28;20231;-72
2022/11/18 13:38:01;;;;;;;9.50;7.50;;;1.80;99.90;;;;;;5051753;28;20205;-70
2022/11/18 13:40:32;;;;;;;12.50;8.37;;;1.70;99.90;;;;;;5052031;28;20199;-71
2022/11/18 13:43:02;;;;;;;17.70;11.03;;;1.60;99.90;;;;;;5051451;28;20199;-74
2022/11/18 13:45:31;;;;;;;9.60;6.47;;;1.60;99.90;;;;;;5051944;28;20232;-69
2022/11/18 13:48:05;;;;;;;15.07;8.87;;;1.50;99.90;;;;;;5035005;28;20202;-68
2022/11/18 13:50:37;;;;;;;14.10;9.67;;;1.60;99.90;;;;;;5106059;27;20233;-69
2022/11/18 13:53:14;;;;;;;14.30;9.10;;;1.60;99.90;;;;;;5134432;27;20285;-69
2022/11/18 13:55:47;;;;;;;16.03;10.30;;;1.60;99.90;;;;;;5134927;27;20249;-69
2022/11/18 13:58:32;;;;;;;15.87;9.83;;;1.50;99.90;;;;;;5134739;27;20207;-70